Terminal Aerodrome Forecast
Issued by NWS

Home | Current Version | Previous Version | Text Only | Print | Product List | Glossary On
Versions: 1 2 3 4 5 6 7 8 9 10 11 12 13 14 15 16 17
000
FTAK31 PAFA 180520
TAFAOT
TAF
PAOT 180520Z 1806/1906 29022G32KT 1SM -SN BR OVC006
     FM181600 30017G23KT 3SM -SN BR SCT015 OVC022
     FM181900 29018KT 2SM BR BKN050=

USA.gov is the U.S. government's official web portal to all federal, state and local government web resources and services.